»·PEaware :: DCM205 KSJC-KRDD

DCM205 :: KSJC-KRDD

FLIGHT INFORMATION

Flight Status: Arrived
Operator:
DotCom
More flights by this operator :: More flights under this callsign
Pilot: Chris S. (2433)
Aircraft: AIRBUS A319
(A319)
More flights by this aircraft type
Origin: KSJC Mineta San Jose Intl
United States
Destination: KRDD Redding Mun
United States
More flights between these airports :: More routes between these airports
Route: SJC3 MOONY SJC SAC V23 RBL
File this flight plan on PilotEdge
Remarks:
Altitude:
(Current/Filed)
21,000ft
Speed:
(Current/Filed)
450kts
Departed: 19-Jan-21 08:20 AM
Arrived: 19-Jan-21 09:11 AM
Distance/Time
Traveled:
189nm/0:50
Distance/Time
To Go:
Arrived

Flight Plot

Page will automatically refresh every two minutes.

Flight plan parsing failed; only flown route is shown


Map Options




Map Legend


Flown Route
Filed Route
Departure Airport
Arrival Airport
Navaid (VOR, NDB)
Fix

Horizontal Profiles

Position Reports

Time Latitude Longitude Heading Altitude Ground
Speed
19-Jan-21 08:02 37.368424 -121.929522 49 70ft 0kts
19-Jan-21 08:03 37.368424 -121.929522 49 70ft 0kts
19-Jan-21 08:04 37.368424 -121.929522 49 70ft 0kts
19-Jan-21 08:05 37.368424 -121.929522 49 70ft 0kts
19-Jan-21 08:06 37.368424 -121.929522 49 70ft 0kts
19-Jan-21 08:07 37.368424 -121.929522 49 70ft 0kts
19-Jan-21 08:08 37.368424 -121.929522 49 70ft 0kts
19-Jan-21 08:09 37.368424 -121.929522 49 70ft 0kts
19-Jan-21 08:10 37.368424 -121.929522 49 70ft 0kts
19-Jan-21 08:11 37.368250 -121.930093 104 70ft 2kts
19-Jan-21 08:12 37.368402 -121.930416 138 70ft 0kts
19-Jan-21 08:13 37.368401 -121.930415 138 70ft 0kts
19-Jan-21 08:14 37.367617 -121.929556 138 70ft 14kts
19-Jan-21 08:15 37.362599 -121.924044 138 70ft 25kts
19-Jan-21 08:16 37.356317 -121.917135 139 70ft 27kts
19-Jan-21 08:17 37.352948 -121.914466 237 70ft 0kts
19-Jan-21 08:18 37.352974 -121.916034 321 70ft 18kts
19-Jan-21 08:19 37.373534 -121.938507 319 650ft 157kts
19-Jan-21 08:20 37.414627 -121.982510 344 2177ft 223kts
19-Jan-21 08:21 37.461693 -121.946960 75 4965ft 224kts
19-Jan-21 08:22 37.421165 -121.889783 170 5006ft 289kts
19-Jan-21 08:23 37.356006 -121.857068 118 5051ft 248kts
19-Jan-21 08:24 37.308063 -121.792540 125 7402ft 254kts
19-Jan-21 08:25 37.257329 -121.726320 123 10549ft 281kts
19-Jan-21 08:26 37.188975 -121.651623 152 11653ft 396kts
19-Jan-21 08:27 37.080489 -121.701301 240 13080ft 466kts
19-Jan-21 08:28 37.066344 -121.849802 299 15367ft 419kts
19-Jan-21 08:29 37.136391 -121.948990 346 17554ft 364kts
19-Jan-21 08:30 37.233805 -121.952518 8 19567ft 354kts
19-Jan-21 08:31 37.333818 -121.946814 7 21031ft 365kts
19-Jan-21 08:32 37.433911 -121.923797 18 21023ft 366kts
19-Jan-21 08:33 37.531974 -121.887286 17 21003ft 367kts
19-Jan-21 08:34 37.630128 -121.851711 18 20997ft 368kts
19-Jan-21 08:35 37.728871 -121.815627 18 21003ft 368kts
19-Jan-21 08:36 37.827132 -121.779642 18 21011ft 368kts
19-Jan-21 08:37 37.925835 -121.743394 18 21025ft 367kts
19-Jan-21 08:38 38.024096 -121.707185 18 21039ft 368kts
19-Jan-21 08:39 38.122464 -121.670879 18 21061ft 368kts
19-Jan-21 08:40 38.221146 -121.634294 18 21067ft 369kts
19-Jan-21 08:41 38.319140 -121.597935 18 21077ft 367kts
19-Jan-21 08:42 38.417843 -121.561933 15 21085ft 369kts
19-Jan-21 08:43 38.521511 -121.575142 352 21092ft 387kts
19-Jan-21 08:44 38.625651 -121.609376 354 21096ft 385kts
19-Jan-21 08:45 38.729959 -121.642524 353 21091ft 387kts
19-Jan-21 08:46 38.834535 -121.675932 353 21116ft 387kts
19-Jan-21 08:47 38.939428 -121.709653 353 21121ft 388kts
19-Jan-21 08:48 39.044369 -121.743533 353 21149ft 390kts
19-Jan-21 08:49 39.149768 -121.777533 353 21161ft 392kts
19-Jan-21 08:50 39.255922 -121.811966 352 21175ft 393kts
19-Jan-21 08:51 39.358478 -121.850692 346 20758ft 364kts
19-Jan-21 08:52 39.449958 -121.898325 346 19761ft 351kts
19-Jan-21 08:53 39.539942 -121.944674 346 18767ft 345kts
19-Jan-21 08:54 39.628431 -121.990487 346 17332ft 338kts
19-Jan-21 08:55 39.714748 -122.035312 346 15042ft 330kts
19-Jan-21 08:56 39.799421 -122.079105 345 12858ft 324kts
19-Jan-21 08:57 39.882581 -122.122611 346 10718ft 321kts
19-Jan-21 08:58 39.960175 -122.163578 347 9952ft 277kts
19-Jan-21 08:59 40.031070 -122.199577 349 7954ft 274kts
19-Jan-21 09:00 40.100927 -122.234446 348 6114ft 262kts
19-Jan-21 09:01 40.167543 -122.267741 344 4195ft 255kts
19-Jan-21 09:02 40.231244 -122.295495 0 2992ft 217kts
19-Jan-21 09:03 40.283902 -122.295206 2 3017ft 177kts
19-Jan-21 09:04 40.333436 -122.295151 2 3001ft 178kts
19-Jan-21 09:05 40.378160 -122.295109 3 2873ft 131kts
19-Jan-21 09:06 40.412910 -122.295064 3 2232ft 118kts
19-Jan-21 09:07 40.443775 -122.294599 0 1713ft 107kts
19-Jan-21 09:08 40.473348 -122.294952 2 1094ft 105kts
19-Jan-21 09:09 40.502601 -122.294906 0 542ft 105kts
19-Jan-21 09:10 40.517159 -122.295212 278 516ft 8kts
19-Jan-21 09:11 40.516401 -122.296282 199 516ft 15kts
19-Jan-21 09:12 40.511068 -122.296328 179 516ft 30kts
19-Jan-21 09:13 40.506155 -122.298502 171 516ft 19kts
19-Jan-21 09:14 40.505437 -122.298964 311 516ft 0kts
19-Jan-21 09:15 40.505437 -122.298964 311 516ft 0kts

Navigation Log

Ident Type
Flight plan parsing failed, navigation log unavailable